Time;durP1;ratioP1;P1;durP2;ratioP2;P2;SDS_P1;SDS_P2;PMS_P1;PMS_P2;Temp;Humidity;BMP_temperature;BMP_pressure;BME280_temperature;BME280_humidity;BME280_pressure;Samples;Min_cycle;Max_cycle;Signal;HPM_P1;HPM_P2
2022/01/07 00:01:42;;;;;;;10.68;4.82;;;3.90;99.90;;;;;;5085976;28;20048;-66
2022/01/07 00:04:08;;;;;;;12.48;5.53;;;3.90;99.90;;;;;;5059534;28;20406;-65
2022/01/07 00:06:34;;;;;;;14.65;4.80;;;3.90;99.90;;;;;;5050142;28;20048;-65
2022/01/07 00:09:00;;;;;;;12.05;5.07;;;3.90;99.90;;;;;;5055595;28;20063;-65
2022/01/07 00:11:25;;;;;;;13.13;5.75;;;3.90;99.90;;;;;;5077178;28;20052;-65
2022/01/07 00:13:51;;;;;;;12.73;5.20;;;3.90;99.90;;;;;;5076110;28;20063;-65
2022/01/07 00:16:17;;;;;;;14.05;4.63;;;3.90;99.90;;;;;;5069622;28;20051;-65
2022/01/07 00:18:44;;;;;;;12.48;4.68;;;3.90;99.90;;;;;;5051602;28;20064;-65
2022/01/07 00:21:10;;;;;;;8.75;4.35;;;3.90;99.90;;;;;;5068600;28;20045;-65
2022/01/07 00:23:36;;;;;;;12.40;4.80;;;3.90;99.90;;;;;;5073872;28;20106;-65
2022/01/07 00:26:03;;;;;;;12.27;5.80;;;3.80;99.90;;;;;;5073878;28;20485;-66
2022/01/07 00:28:28;;;;;;;14.52;5.22;;;3.80;99.90;;;;;;5073609;28;20052;-65
2022/01/07 00:30:55;;;;;;;18.48;5.43;;;3.80;99.90;;;;;;5072811;28;20079;-66
2022/01/07 00:33:21;;;;;;;19.10;5.03;;;3.80;99.90;;;;;;5086631;28;20048;-65
2022/01/07 00:35:47;;;;;;;14.05;4.80;;;3.70;99.90;;;;;;5069839;28;20404;-65
2022/01/07 00:38:13;;;;;;;11.13;4.10;;;3.80;99.90;;;;;;5093986;28;20055;-65
2022/01/07 00:40:39;;;;;;;11.93;4.82;;;3.80;99.90;;;;;;5055040;28;20048;-64
2022/01/07 00:43:05;;;;;;;9.13;4.90;;;3.70;99.90;;;;;;5053851;28;20091;-65
2022/01/07 00:45:32;;;;;;;11.07;4.85;;;3.60;99.90;;;;;;5068590;28;20041;-66
2022/01/07 00:47:58;;;;;;;12.55;5.15;;;3.60;99.90;;;;;;5056932;28;20136;-66
2022/01/07 00:50:27;;;;;;;12.10;5.60;;;3.60;99.90;;;;;;5062342;28;20044;-65
2022/01/07 00:52:53;;;;;;;11.95;5.55;;;3.50;99.90;;;;;;5053725;28;20088;-67
2022/01/07 00:55:19;;;;;;;16.00;5.88;;;3.50;99.90;;;;;;5063483;28;20083;-65
2022/01/07 00:57:45;;;;;;;13.60;5.78;;;3.50;99.90;;;;;;5073838;28;20409;-65
2022/01/07 01:00:14;;;;;;;16.52;5.32;;;3.40;99.90;;;;;;5071041;28;20461;-66
2022/01/07 01:02:41;;;;;;;14.52;6.13;;;3.40;99.90;;;;;;5052249;28;20037;-70
2022/01/07 01:05:10;;;;;;;14.02;5.95;;;3.30;99.90;;;;;;5057018;28;20058;-64
2022/01/07 01:07:36;;;;;;;13.32;5.53;;;3.40;99.90;;;;;;5072931;28;20056;-66
2022/01/07 01:10:07;;;;;;;13.13;5.38;;;3.30;99.90;;;;;;5071114;28;20059;-64
2022/01/07 01:12:36;;;;;;;12.25;4.68;;;3.20;99.90;;;;;;5056239;28;20060;-64
2022/01/07 01:15:04;;;;;;;10.27;4.78;;;3.20;99.90;;;;;;5092407;28;20040;-73
2022/01/07 01:17:30;;;;;;;14.38;5.55;;;3.20;99.90;;;;;;5073215;28;20044;-64
2022/01/07 01:19:55;;;;;;;10.50;5.72;;;3.20;99.90;;;;;;5054473;28;20064;-64
2022/01/07 01:22:21;;;;;;;8.57;4.88;;;3.20;99.90;;;;;;5052548;28;20049;-65
2022/01/07 01:24:47;;;;;;;11.48;5.60;;;3.20;99.90;;;;;;5059290;28;20094;-64
2022/01/07 01:27:13;;;;;;;11.45;5.55;;;3.10;99.90;;;;;;5073704;28;20040;-64
2022/01/07 01:29:38;;;;;;;14.05;5.78;;;3.10;99.90;;;;;;5070890;28;20044;-63
2022/01/07 01:32:04;;;;;;;10.27;5.18;;;3.10;99.90;;;;;;5071453;28;20048;-72
2022/01/07 01:34:31;;;;;;;11.02;4.97;;;3.10;99.90;;;;;;5072002;28;20052;-63
2022/01/07 01:36:57;;;;;;;10.55;4.32;;;3.30;99.90;;;;;;5075998;28;20101;-64
2022/01/07 01:39:22;;;;;;;12.93;4.65;;;3.00;99.90;;;;;;5057385;28;20120;-64
2022/01/07 01:41:49;;;;;;;8.82;5.72;;;3.10;99.90;;;;;;5053172;28;20186;-64
2022/01/07 01:44:15;;;;;;;13.02;5.40;;;3.00;99.90;;;;;;5067842;28;20080;-63
2022/01/07 01:46:41;;;;;;;11.68;5.65;;;3.00;99.90;;;;;;5055352;28;20497;-64
2022/01/07 01:49:07;;;;;;;8.77;4.78;;;3.00;99.90;;;;;;5073022;28;20052;-64
2022/01/07 01:51:33;;;;;;;16.13;5.38;;;3.00;99.90;;;;;;5071532;28;20059;-64
2022/01/07 01:53:59;;;;;;;15.70;6.03;;;3.00;99.90;;;;;;5072682;28;20477;-64
2022/01/07 01:56:25;;;;;;;10.68;4.90;;;2.90;99.90;;;;;;5072172;28;20056;-65
2022/01/07 01:58:51;;;;;;;12.25;6.00;;;2.90;99.90;;;;;;5071737;28;20044;-64
2022/01/07 02:01:17;;;;;;;18.67;5.85;;;2.90;99.90;;;;;;5078420;28;20047;-64
2022/01/07 02:03:43;;;;;;;10.13;5.28;;;2.90;99.90;;;;;;5091525;28;20048;-65
2022/01/07 02:06:10;;;;;;;11.38;5.78;;;2.80;99.90;;;;;;5091284;28;20083;-63
2022/01/07 02:08:36;;;;;;;10.45;5.22;;;2.90;99.90;;;;;;5078918;28;20135;-64
2022/01/07 02:11:03;;;;;;;7.88;5.10;;;2.80;99.90;;;;;;5071270;28;20138;-64
2022/01/07 02:13:29;;;;;;;11.18;5.05;;;2.80;99.90;;;;;;5072151;28;20044;-64
2022/01/07 02:15:55;;;;;;;13.75;5.88;;;2.80;99.90;;;;;;5071287;28;20086;-63
2022/01/07 02:18:20;;;;;;;13.35;5.55;;;2.80;99.90;;;;;;5070743;28;20056;-64
2022/01/07 02:20:48;;;;;;;12.80;5.25;;;2.80;99.90;;;;;;5071552;28;20036;-64
2022/01/07 02:23:15;;;;;;;10.57;4.75;;;2.80;99.90;;;;;;5071807;28;20572;-64
2022/01/07 02:25:41;;;;;;;17.15;6.72;;;2.80;99.90;;;;;;5074438;28;20059;-65
2022/01/07 02:28:07;;;;;;;13.52;6.47;;;2.70;99.90;;;;;;5071325;28;20040;-64
2022/01/07 02:30:33;;;;;;;8.57;4.13;;;2.70;99.90;;;;;;5072587;28;20399;-66
2022/01/07 02:32:59;;;;;;;13.32;5.88;;;2.70;99.90;;;;;;5071902;28;20127;-64
2022/01/07 02:35:31;;;;;;;13.98;7.28;;;2.70;99.90;;;;;;5071396;28;20053;-64
2022/01/07 02:37:57;;;;;;;8.38;5.60;;;2.70;99.90;;;;;;5076649;28;20040;-64
2022/01/07 02:40:22;;;;;;;11.85;5.85;;;2.70;99.90;;;;;;5090657;28;20048;-65
2022/01/07 02:42:48;;;;;;;11.50;6.25;;;2.70;99.90;;;;;;5091867;28;20044;-63
2022/01/07 02:45:14;;;;;;;11.75;5.70;;;2.70;99.90;;;;;;5090437;28;20072;-63
2022/01/07 02:47:49;;;;;;;11.13;5.93;;;2.80;99.90;;;;;;5074112;28;20050;-63
2022/01/07 02:50:21;;;;;;;8.93;5.97;;;2.80;99.90;;;;;;5073830;28;20399;-70
2022/01/07 02:52:47;;;;;;;11.13;6.72;;;2.80;99.90;;;;;;5091761;28;20050;-63
2022/01/07 02:55:15;;;;;;;9.38;5.90;;;2.80;99.90;;;;;;5090714;28;20059;-63
2022/01/07 02:57:40;;;;;;;9.80;6.47;;;2.80;99.90;;;;;;5069268;28;20095;-64
2022/01/07 03:00:08;;;;;;;12.27;6.47;;;2.80;99.90;;;;;;5070132;28;20087;-63
2022/01/07 03:02:34;;;;;;;10.77;6.93;;;2.80;99.90;;;;;;5072388;28;20082;-64
2022/01/07 03:04:59;;;;;;;7.35;5.75;;;2.80;99.90;;;;;;5091733;28;20420;-64
2022/01/07 03:07:25;;;;;;;12.90;6.75;;;2.90;99.90;;;;;;5073958;28;20504;-63
2022/01/07 03:09:51;;;;;;;13.50;6.40;;;2.80;99.90;;;;;;5070843;28;20044;-64
2022/01/07 03:12:17;;;;;;;9.35;5.68;;;2.70;99.90;;;;;;5086757;28;20564;-66
2022/01/07 03:14:42;;;;;;;10.48;6.28;;;2.80;99.90;;;;;;5069559;28;20044;-64
2022/01/07 03:17:08;;;;;;;11.30;7.30;;;2.70;99.90;;;;;;5070442;28;20123;-64
2022/01/07 03:19:34;;;;;;;8.52;5.53;;;2.80;99.90;;;;;;5057816;28;20074;-64
2022/01/07 03:22:00;;;;;;;11.30;7.30;;;2.70;99.90;;;;;;5051109;28;20053;-64
2022/01/07 03:24:25;;;;;;;9.70;5.85;;;2.70;99.90;;;;;;5050748;28;20045;-63
2022/01/07 03:26:51;;;;;;;11.77;6.72;;;2.80;99.90;;;;;;5062482;28;20040;-64
2022/01/07 03:29:17;;;;;;;15.13;7.32;;;2.70;99.90;;;;;;5081819;28;20160;-63
2022/01/07 03:31:43;;;;;;;8.63;5.65;;;2.70;99.90;;;;;;5085902;28;20078;-64
2022/01/07 03:34:08;;;;;;;10.10;6.30;;;2.70;99.90;;;;;;5069654;28;20052;-64
2022/01/07 03:36:34;;;;;;;11.80;5.72;;;2.70;99.90;;;;;;5069340;28;20261;-63
2022/01/07 03:39:03;;;;;;;11.55;6.85;;;2.70;99.90;;;;;;5070740;28;20041;-64
2022/01/07 03:41:29;;;;;;;14.23;8.00;;;2.70;99.90;;;;;;5069657;28;20112;-64
2022/01/07 03:43:54;;;;;;;9.07;6.80;;;2.80;99.90;;;;;;5069588;28;20048;-64
2022/01/07 03:46:20;;;;;;;13.20;7.00;;;2.70;99.90;;;;;;5060989;28;20494;-63
2022/01/07 03:48:46;;;;;;;15.75;7.32;;;2.70;99.90;;;;;;5065560;28;20490;-64
2022/01/07 03:51:12;;;;;;;10.25;6.88;;;2.70;99.90;;;;;;5061875;28;20209;-65
2022/01/07 03:53:37;;;;;;;9.90;6.78;;;2.70;99.90;;;;;;5083201;28;20051;-64
2022/01/07 03:56:03;;;;;;;9.48;6.22;;;2.70;99.90;;;;;;5078197;28;20052;-64
2022/01/07 03:58:29;;;;;;;12.65;8.18;;;2.70;99.90;;;;;;5070045;28;20393;-64
2022/01/07 04:00:55;;;;;;;8.30;6.60;;;2.70;99.90;;;;;;5065669;28;20052;-64
2022/01/07 04:03:20;;;;;;;10.48;5.90;;;2.70;99.90;;;;;;5070699;28;20228;-65
2022/01/07 04:05:46;;;;;;;13.43;8.40;;;2.80;99.90;;;;;;5065400;28;20452;-64
2022/01/07 04:08:13;;;;;;;9.27;6.45;;;2.70;99.90;;;;;;5050322;28;20143;-66
2022/01/07 04:10:40;;;;;;;11.48;7.93;;;2.90;99.90;;;;;;5050140;28;20457;-65
2022/01/07 04:13:07;;;;;;;10.35;6.97;;;2.80;99.90;;;;;;5069610;28;20517;-65
2022/01/07 04:15:33;;;;;;;12.63;6.97;;;2.80;99.90;;;;;;5069159;28;20358;-64
2022/01/07 04:17:58;;;;;;;11.38;7.78;;;2.80;99.90;;;;;;5078824;28;20090;-66
2022/01/07 04:20:28;;;;;;;13.38;7.95;;;2.90;99.90;;;;;;5089358;28;20056;-65
2022/01/07 04:22:54;;;;;;;11.82;7.35;;;3.20;99.90;;;;;;5076062;28;20102;-65
2022/01/07 04:25:21;;;;;;;12.10;7.57;;;2.80;99.90;;;;;;5065503;28;20053;-64
2022/01/07 04:27:59;;;;;;;9.32;5.47;;;2.80;99.90;;;;;;5048394;28;20044;-65
2022/01/07 04:30:31;;;;;;;12.15;7.07;;;2.80;99.90;;;;;;5072681;28;20420;-64
2022/01/07 04:32:58;;;;;;;13.13;8.00;;;2.80;99.90;;;;;;5081806;28;20053;-64
2022/01/07 04:35:25;;;;;;;13.07;7.82;;;2.80;99.90;;;;;;5058875;28;20049;-66
2022/01/07 04:37:51;;;;;;;13.18;6.80;;;2.90;99.90;;;;;;5049670;28;20490;-64
2022/01/07 04:40:18;;;;;;;8.88;7.13;;;2.80;99.90;;;;;;5048778;28;20055;-64
2022/01/07 04:42:45;;;;;;;11.13;6.80;;;2.90;99.90;;;;;;5066832;28;20575;-64
2022/01/07 04:45:11;;;;;;;8.57;6.30;;;2.80;99.90;;;;;;5068467;28;20087;-65
2022/01/07 04:47:37;;;;;;;9.20;7.32;;;2.90;99.90;;;;;;5068592;28;20036;-65
2022/01/07 04:50:10;;;;;;;10.10;7.07;;;2.90;99.90;;;;;;5069169;28;20505;-64
2022/01/07 04:52:35;;;;;;;11.70;8.00;;;2.90;99.90;;;;;;5069673;28;20105;-65
2022/01/07 04:55:02;;;;;;;11.60;7.70;;;2.90;99.90;;;;;;5060508;28;20080;-65
2022/01/07 04:57:28;;;;;;;13.82;8.68;;;2.90;99.90;;;;;;5048846;28;20048;-66
2022/01/07 04:59:54;;;;;;;12.75;7.72;;;3.20;99.90;;;;;;5048275;28;20482;-64
2022/01/07 05:02:20;;;;;;;13.50;7.80;;;2.90;99.90;;;;;;5065692;28;20479;-64
2022/01/07 05:04:46;;;;;;;10.63;8.00;;;2.90;99.90;;;;;;5065993;28;20068;-65
2022/01/07 05:07:12;;;;;;;10.93;7.95;;;3.00;99.90;;;;;;5068977;28;20408;-64
2022/01/07 05:09:38;;;;;;;11.07;7.30;;;3.20;99.90;;;;;;5070315;28;20048;-65
2022/01/07 05:12:04;;;;;;;10.10;6.78;;;3.00;99.90;;;;;;5072766;28;20059;-65
2022/01/07 05:14:30;;;;;;;11.80;7.28;;;3.00;99.90;;;;;;5074686;28;20495;-64
2022/01/07 05:16:58;;;;;;;9.23;6.43;;;3.00;99.90;;;;;;5105809;28;20048;-65
2022/01/07 05:19:24;;;;;;;10.48;8.10;;;3.00;99.90;;;;;;5073357;28;20040;-64
2022/01/07 05:21:50;;;;;;;11.52;7.25;;;3.00;99.90;;;;;;5072024;28;20121;-65
2022/01/07 05:24:15;;;;;;;9.70;6.68;;;3.00;99.90;;;;;;5075007;28;20047;-67
2022/01/07 05:26:41;;;;;;;10.70;6.93;;;3.00;99.90;;;;;;5068204;28;20078;-65
2022/01/07 05:29:07;;;;;;;10.70;6.80;;;3.10;99.90;;;;;;5073055;28;20044;-65
2022/01/07 05:31:33;;;;;;;12.05;6.80;;;3.10;99.90;;;;;;5073137;28;20045;-66
2022/01/07 05:33:58;;;;;;;10.88;7.93;;;3.10;99.90;;;;;;5053924;28;20056;-65
2022/01/07 05:36:24;;;;;;;13.60;8.18;;;3.10;99.90;;;;;;5071165;28;20417;-64
2022/01/07 05:38:50;;;;;;;11.35;6.32;;;3.10;99.90;;;;;;5070910;28;20084;-65
2022/01/07 05:41:17;;;;;;;9.25;6.00;;;3.10;99.90;;;;;;5070612;28;20137;-66
2022/01/07 05:43:43;;;;;;;12.95;7.47;;;3.20;99.90;;;;;;5071918;28;20529;-65
2022/01/07 05:46:14;;;;;;;10.00;7.30;;;3.20;99.90;;;;;;5075680;28;20090;-65
2022/01/07 05:48:46;;;;;;;9.02;6.80;;;3.10;99.90;;;;;;5072577;28;20049;-72
2022/01/07 05:51:13;;;;;;;13.27;7.30;;;3.20;99.90;;;;;;5072587;28;20047;-64
2022/01/07 05:53:41;;;;;;;10.90;7.78;;;3.20;99.90;;;;;;5087715;28;20044;-64
2022/01/07 05:56:07;;;;;;;11.38;8.00;;;3.20;99.90;;;;;;5069937;28;20421;-65
2022/01/07 05:58:33;;;;;;;11.00;7.18;;;3.20;99.90;;;;;;5070156;28;20501;-64
2022/01/07 06:00:59;;;;;;;13.00;7.97;;;3.20;99.90;;;;;;5071777;28;20059;-65
2022/01/07 06:03:26;;;;;;;10.82;6.72;;;3.20;99.90;;;;;;5072034;28;20481;-64
2022/01/07 06:05:51;;;;;;;12.50;7.57;;;3.20;99.90;;;;;;5072891;28;20044;-65
2022/01/07 06:08:17;;;;;;;9.27;5.97;;;3.20;99.90;;;;;;5068815;28;20394;-65
2022/01/07 06:10:43;;;;;;;13.70;7.40;;;3.30;99.90;;;;;;5072056;28;20131;-70
2022/01/07 06:13:09;;;;;;;11.88;8.00;;;3.30;99.90;;;;;;5072141;28;20102;-65
2022/01/07 06:15:35;;;;;;;11.27;6.45;;;3.20;99.90;;;;;;5069445;28;20048;-65
2022/01/07 06:18:04;;;;;;;10.02;7.65;;;3.30;99.90;;;;;;5071591;28;20090;-67
2022/01/07 06:20:30;;;;;;;12.50;7.60;;;3.30;99.90;;;;;;5092064;28;20040;-65
2022/01/07 06:22:55;;;;;;;12.95;8.25;;;3.20;99.90;;;;;;5090708;28;20452;-63
2022/01/07 06:25:21;;;;;;;9.77;6.68;;;3.30;99.90;;;;;;5091166;28;20055;-66
2022/01/07 06:27:47;;;;;;;11.65;7.88;;;3.20;99.90;;;;;;5085845;28;20132;-66
2022/01/07 06:30:13;;;;;;;10.32;5.85;;;3.30;99.90;;;;;;5072844;28;20095;-66
2022/01/07 06:32:38;;;;;;;11.77;7.10;;;3.30;99.90;;;;;;5072420;28;20425;-65
2022/01/07 06:35:05;;;;;;;12.13;7.75;;;3.30;99.90;;;;;;5071568;28;20584;-65
2022/01/07 06:37:31;;;;;;;13.23;7.38;;;3.30;99.90;;;;;;5075415;28;20374;-64
2022/01/07 06:39:58;;;;;;;9.25;6.30;;;3.30;99.90;;;;;;5078711;28;20041;-65
2022/01/07 06:42:24;;;;;;;11.70;7.60;;;3.30;99.90;;;;;;5071887;28;20060;-64
2022/01/07 06:44:50;;;;;;;9.95;7.18;;;3.30;99.90;;;;;;5070300;28;20044;-66
2022/01/07 06:47:16;;;;;;;11.07;7.75;;;3.30;99.90;;;;;;5070028;28;20048;-65
2022/01/07 06:49:41;;;;;;;8.77;7.10;;;3.30;99.90;;;;;;5087359;28;20106;-65
2022/01/07 06:52:07;;;;;;;9.35;6.47;;;3.30;99.90;;;;;;5071440;28;20048;-65
2022/01/07 06:54:33;;;;;;;8.82;6.38;;;3.30;99.90;;;;;;5071517;28;20131;-66
2022/01/07 06:56:59;;;;;;;9.25;6.88;;;3.30;99.90;;;;;;5069955;28;20084;-65
2022/01/07 06:59:25;;;;;;;9.65;6.95;;;3.30;99.90;;;;;;5086679;28;20086;-64
2022/01/07 07:01:50;;;;;;;9.63;6.85;;;3.40;99.90;;;;;;5091299;28;20542;-68
2022/01/07 07:04:17;;;;;;;11.50;7.47;;;3.30;99.90;;;;;;5091531;28;20036;-64
2022/01/07 07:06:43;;;;;;;10.32;7.13;;;3.40;99.90;;;;;;5088272;28;20036;-64
2022/01/07 07:09:09;;;;;;;10.57;6.82;;;3.40;99.90;;;;;;5079535;28;20056;-65
2022/01/07 07:11:35;;;;;;;10.93;7.28;;;3.30;99.90;;;;;;5070846;28;20052;-65
2022/01/07 07:14:02;;;;;;;8.57;6.80;;;3.40;99.90;;;;;;5069627;28;20127;-64
2022/01/07 07:16:28;;;;;;;10.32;6.78;;;3.30;99.90;;;;;;5071154;28;20131;-67
2022/01/07 07:18:54;;;;;;;9.43;7.43;;;3.40;99.90;;;;;;5073273;28;20127;-66
2022/01/07 07:21:19;;;;;;;12.50;8.20;;;3.50;99.90;;;;;;5068030;28;20056;-64
2022/01/07 07:23:45;;;;;;;13.88;8.20;;;3.50;99.90;;;;;;5100738;28;20053;-63
2022/01/07 07:26:11;;;;;;;11.93;8.63;;;3.40;99.90;;;;;;5050758;28;20052;-63
2022/01/07 07:28:38;;;;;;;11.23;7.60;;;3.40;99.90;;;;;;5052781;28;20080;-63
2022/01/07 07:31:12;;;;;;;10.57;8.48;;;3.40;99.90;;;;;;5089677;28;20047;-65
2022/01/07 07:36:30;;;;;;;18.00;9.23;;;3.60;99.90;;;;;;5070839;28;20143;-65
2022/01/07 07:39:06;;;;;;;14.20;8.40;;;3.50;99.90;;;;;;5069300;28;20040;-66
2022/01/07 07:41:33;;;;;;;11.77;8.90;;;3.50;99.90;;;;;;5103447;28;20048;-64
2022/01/07 07:43:59;;;;;;;15.73;9.68;;;3.60;99.90;;;;;;5069401;28;20055;-63
2022/01/07 07:46:28;;;;;;;14.02;9.35;;;3.60;99.90;;;;;;5069664;28;20052;-65
2022/01/07 07:48:54;;;;;;;13.43;9.55;;;3.60;99.90;;;;;;5052871;28;20094;-63
2022/01/07 07:51:20;;;;;;;15.13;9.52;;;3.60;99.90;;;;;;5086459;28;20238;-64
2022/01/07 07:53:46;;;;;;;14.85;9.40;;;3.60;99.90;;;;;;5078457;28;20044;-65
2022/01/07 07:56:14;;;;;;;12.32;8.55;;;3.60;99.90;;;;;;5070061;28;20127;-65
2022/01/07 07:58:42;;;;;;;14.23;9.60;;;3.60;99.90;;;;;;5049598;28;20052;-65
2022/01/07 08:01:07;;;;;;;13.63;10.65;;;3.60;99.90;;;;;;5073201;28;20075;-63
2022/01/07 08:03:33;;;;;;;12.82;9.48;;;3.60;99.90;;;;;;5084884;28;20123;-64
2022/01/07 08:05:59;;;;;;;16.33;10.25;;;3.70;99.90;;;;;;5070174;28;20040;-72
2022/01/07 08:08:25;;;;;;;16.83;11.75;;;3.70;99.90;;;;;;5069245;28;20065;-64
2022/01/07 08:10:54;;;;;;;16.02;10.48;;;3.70;99.90;;;;;;5075321;28;20512;-65
2022/01/07 08:13:30;;;;;;;14.70;10.68;;;3.80;99.90;;;;;;5075298;28;20060;-64
2022/01/07 08:16:05;;;;;;;18.95;10.15;;;3.80;99.90;;;;;;5069100;28;20055;-64
2022/01/07 08:18:36;;;;;;;19.45;12.20;;;3.80;99.90;;;;;;5070146;28;20045;-64
2022/01/07 08:21:07;;;;;;;17.85;10.82;;;3.80;99.90;;;;;;5069968;28;20052;-63
2022/01/07 08:23:34;;;;;;;17.75;10.63;;;3.90;99.90;;;;;;5069091;28;20060;-64
2022/01/07 08:26:02;;;;;;;17.90;11.48;;;3.90;99.90;;;;;;5066725;28;20049;-63
2022/01/07 08:28:34;;;;;;;18.42;11.30;;;3.90;99.90;;;;;;5048863;28;20037;-64
2022/01/07 08:36:10;;;;;;;;;;;4.00;99.90;;;;;;5053277;28;20073;-64
2022/01/07 08:38:36;;;;;;;19.27;11.93;;;4.00;99.90;;;;;;5050386;28;19986;-63
2022/01/07 08:41:03;;;;;;;20.15;11.35;;;4.00;99.90;;;;;;5050113;28;20072;-65
2022/01/07 08:43:29;;;;;;;20.55;11.98;;;4.00;99.90;;;;;;5050879;28;20048;-63
2022/01/07 08:45:55;;;;;;;21.70;10.57;;;4.10;99.90;;;;;;5056571;28;20052;-63
2022/01/07 08:48:20;;;;;;;24.02;12.98;;;4.10;99.90;;;;;;5069254;28;20048;-63
2022/01/07 08:50:46;;;;;;;30.30;12.90;;;4.10;99.90;;;;;;5053742;28;20052;-63
2022/01/07 08:53:12;;;;;;;17.17;12.50;;;4.10;99.90;;;;;;5068821;28;20056;-65
2022/01/07 08:55:38;;;;;;;20.02;11.75;;;4.20;99.90;;;;;;5069057;28;20485;-67
2022/01/07 08:58:03;;;;;;;21.65;12.75;;;4.20;99.90;;;;;;5072619;28;20048;-64
2022/01/07 09:00:30;;;;;;;17.23;11.35;;;4.20;99.90;;;;;;5072424;28;20076;-64
2022/01/07 09:02:56;;;;;;;18.35;12.15;;;4.30;99.90;;;;;;5073677;28;20128;-65
2022/01/07 09:05:21;;;;;;;25.98;12.82;;;4.30;99.90;;;;;;5067271;28;20160;-65
2022/01/07 09:07:47;;;;;;;14.05;11.00;;;4.30;99.90;;;;;;5071376;28;20117;-65
2022/01/07 09:10:13;;;;;;;19.75;11.70;;;4.40;99.90;;;;;;5065481;28;20129;-65
2022/01/07 09:12:39;;;;;;;20.00;12.73;;;4.40;99.90;;;;;;5087866;28;20052;-65
2022/01/07 09:15:05;;;;;;;17.35;11.00;;;4.40;99.90;;;;;;5072982;28;20153;-65
2022/01/07 09:17:32;;;;;;;20.90;13.35;;;4.40;99.90;;;;;;5073231;28;20045;-63
2022/01/07 09:19:59;;;;;;;22.60;12.50;;;4.40;99.90;;;;;;5071728;28;20497;-64
2022/01/07 09:22:25;;;;;;;23.75;11.57;;;4.50;99.90;;;;;;5056483;28;20057;-65
2022/01/07 09:24:50;;;;;;;23.58;12.95;;;4.50;99.90;;;;;;5053043;28;20051;-63
2022/01/07 09:27:16;;;;;;;20.55;13.52;;;4.50;99.90;;;;;;5051612;28;20116;-64
2022/01/07 09:29:42;;;;;;;23.60;12.95;;;4.50;99.90;;;;;;5086845;28;20044;-63
2022/01/07 09:32:08;;;;;;;18.17;10.75;;;4.50;99.90;;;;;;5070248;28;20048;-66
2022/01/07 09:34:35;;;;;;;21.83;13.45;;;4.60;99.90;;;;;;5075191;28;20485;-64
2022/01/07 09:37:03;;;;;;;21.90;12.43;;;4.60;99.90;;;;;;5073167;28;20368;-64
2022/01/07 09:39:28;;;;;;;21.02;13.65;;;4.60;99.90;;;;;;5070892;28;20041;-64
2022/01/07 09:41:54;;;;;;;24.13;13.68;;;4.60;99.90;;;;;;5054864;28;20137;-64
2022/01/07 09:44:20;;;;;;;20.15;11.82;;;4.60;99.90;;;;;;5053822;28;20060;-64
2022/01/07 09:46:46;;;;;;;24.42;12.38;;;4.70;99.90;;;;;;5052838;28;20037;-64
2022/01/07 09:49:12;;;;;;;19.13;12.37;;;4.60;99.90;;;;;;5084838;28;20486;-65
2022/01/07 09:51:39;;;;;;;21.58;12.88;;;4.70;99.90;;;;;;5061059;28;20048;-64
2022/01/07 09:54:06;;;;;;;23.85;13.05;;;4.70;99.90;;;;;;5081689;28;20139;-64
2022/01/07 09:56:32;;;;;;;19.70;11.50;;;4.70;99.90;;;;;;5071897;28;20052;-64
2022/01/07 09:58:58;;;;;;;18.52;13.48;;;4.70;99.90;;;;;;5072360;28;20121;-63
2022/01/07 10:01:25;;;;;;;20.00;12.82;;;4.70;99.90;;;;;;5069769;28;20087;-63
2022/01/07 10:03:51;;;;;;;20.17;13.02;;;4.70;99.90;;;;;;5070264;28;20049;-64
2022/01/07 10:06:27;;;;;;;;;;;4.70;99.90;;;;;;5070967;28;20465;-64
2022/01/07 10:08:59;;;;;;;;;;;4.70;99.90;;;;;;5072462;28;19951;-63
2022/01/07 10:11:25;;;;;;;;;;;4.70;99.90;;;;;;5073566;28;19935;-65
2022/01/07 10:14:10;;;;;;;;;;;4.70;99.90;;;;;;5069985;28;19924;-64
2022/01/07 10:16:47;;;;;;;15.77;9.68;;;4.80;99.90;;;;;;5104153;28;19932;-63
2022/01/07 10:19:53;;;;;;;13.30;7.82;;;4.80;99.90;;;;;;5051753;28;20053;-64
2022/01/07 10:22:18;;;;;;;10.82;6.57;;;4.70;99.90;;;;;;5004851;28;20049;-71
2022/01/07 10:25:02;;;;;;;8.55;5.75;;;4.70;99.90;;;;;;4975438;28;20057;-65
2022/01/07 10:27:35;;;;;;;6.47;3.97;;;4.70;99.90;;;;;;5033985;28;20053;-66
2022/01/07 10:30:09;;;;;;;7.20;3.28;;;4.80;99.90;;;;;;5084579;28;20051;-65
2022/01/07 10:32:34;;;;;;;7.75;2.88;;;4.80;99.90;;;;;;5077527;28;20053;-65
2022/01/07 10:35:20;;;;;;;7.50;2.47;;;4.70;99.90;;;;;;5086477;28;20048;-65
2022/01/07 10:37:55;;;;;;;5.00;2.63;;;4.70;99.90;;;;;;5069921;28;20357;-66
2022/01/07 10:40:28;;;;;;;5.50;2.60;;;4.70;99.90;;;;;;5071553;28;20044;-69
2022/01/07 10:43:06;;;;;;;4.60;2.50;;;4.70;99.90;;;;;;5075946;28;20052;-65
2022/01/07 10:45:32;;;;;;;7.38;3.00;;;4.70;99.90;;;;;;5079505;28;20048;-64
2022/01/07 10:47:58;;;;;;;5.68;2.97;;;4.80;99.90;;;;;;5060295;28;20120;-65
2022/01/07 10:50:24;;;;;;;6.68;2.75;;;4.80;99.90;;;;;;5050199;28;20171;-65
2022/01/07 10:52:51;;;;;;;5.22;2.53;;;4.90;99.90;;;;;;5059812;28;20412;-66
2022/01/07 10:55:20;;;;;;;5.70;2.38;;;5.00;99.90;;;;;;5070907;28;20086;-64
2022/01/07 10:57:48;;;;;;;5.63;2.78;;;5.00;99.90;;;;;;5069446;28;20094;-66
2022/01/07 11:00:17;;;;;;;6.50;2.33;;;5.00;99.90;;;;;;5071059;28;20580;-66
2022/01/07 11:02:44;;;;;;;7.82;2.47;;;5.00;99.90;;;;;;5066906;28;20052;-66
2022/01/07 11:05:10;;;;;;;5.65;2.22;;;5.00;99.90;;;;;;5059752;28;20363;-65
2022/01/07 11:07:36;;;;;;;3.33;1.67;;;5.00;99.90;;;;;;5069577;28;20404;-67
2022/01/07 11:10:04;;;;;;;6.35;2.97;;;5.10;99.90;;;;;;5069787;28;20052;-64
2022/01/07 11:12:31;;;;;;;3.45;1.80;;;5.20;99.90;;;;;;5066482;28;20448;-66
2022/01/07 11:14:58;;;;;;;6.13;2.40;;;5.20;99.90;;;;;;5069456;28;20463;-65
2022/01/07 11:17:26;;;;;;;5.32;2.22;;;5.20;99.90;;;;;;5069918;28;20056;-65
2022/01/07 11:19:55;;;;;;;4.78;2.05;;;5.20;99.90;;;;;;5065390;28;20084;-65
2022/01/07 11:22:23;;;;;;;6.20;2.25;;;5.10;99.90;;;;;;5058940;28;20083;-64
2022/01/07 11:24:51;;;;;;;5.82;2.03;;;5.10;99.90;;;;;;5068744;28;20456;-65
2022/01/07 11:27:27;;;;;;;5.90;2.47;;;5.20;99.90;;;;;;5069758;28;20571;-66
2022/01/07 11:29:54;;;;;;;6.82;2.83;;;5.10;99.90;;;;;;5070583;28;20123;-64
2022/01/07 11:32:25;;;;;;;6.72;2.67;;;5.10;99.90;;;;;;5069288;28;20066;-64
2022/01/07 11:35:16;;;;;;;4.60;2.67;;;5.20;99.90;;;;;;5070934;28;20514;-66
2022/01/07 11:37:44;;;;;;;6.25;2.78;;;5.20;99.90;;;;;;5070029;28;20070;-65
2022/01/07 11:40:10;;;;;;;9.25;4.03;;;5.20;99.90;;;;;;5070534;28;20127;-62
2022/01/07 11:42:41;;;;;;;10.18;3.63;;;5.30;99.90;;;;;;5068843;28;20405;-64
2022/01/07 11:45:31;;;;;;;7.18;3.80;;;5.30;99.90;;;;;;5071689;28;20562;-63
2022/01/07 11:47:58;;;;;;;7.38;3.85;;;5.40;99.90;;;;;;5069902;28;20048;-65
2022/01/07 11:50:25;;;;;;;15.35;5.15;;;5.40;99.90;;;;;;5070484;28;20123;-62
2022/01/07 11:53:04;;;;;;;7.53;3.53;;;5.50;99.90;;;;;;5069587;28;20054;-61
2022/01/07 11:55:36;;;;;;;9.20;5.03;;;5.50;99.90;;;;;;5073204;28;20048;-61
2022/01/07 11:58:07;;;;;;;9.45;4.47;;;5.50;99.90;;;;;;5064866;28;20447;-64
2022/01/07 12:00:56;;;;;;;13.27;5.28;;;5.50;99.90;;;;;;5059053;28;20398;-62
2022/01/07 12:03:42;;;;;;;10.50;5.72;;;5.50;99.90;;;;;;5052513;28;20052;-64
2022/01/07 12:06:17;;;;;;;8.93;5.00;;;5.60;99.90;;;;;;5084981;28;20059;-63
2022/01/07 12:08:58;;;;;;;13.15;5.78;;;5.60;99.90;;;;;;5069375;28;20056;-63
2022/01/07 12:11:40;;;;;;;9.75;5.55;;;5.60;99.90;;;;;;5082952;28;20059;-62
2022/01/07 12:14:18;;;;;;;14.13;5.82;;;5.70;99.90;;;;;;5074373;28;20048;-63
2022/01/07 12:16:50;;;;;;;9.48;5.43;;;5.70;99.90;;;;;;5064517;28;20120;-63
2022/01/07 12:19:19;;;;;;;15.15;5.00;;;5.80;99.90;;;;;;5050648;28;20350;-65
2022/01/07 12:21:50;;;;;;;14.93;6.40;;;5.80;99.90;;;;;;5070490;28;20083;-63
2022/01/07 12:24:36;;;;;;;11.98;5.50;;;5.90;99.90;;;;;;5069326;28;20040;-62
2022/01/07 12:27:11;;;;;;;11.80;6.07;;;5.90;99.90;;;;;;5054336;28;20059;-63
2022/01/07 12:29:39;;;;;;;10.68;5.97;;;6.00;99.90;;;;;;5068280;28;20048;-69
2022/01/07 12:32:06;;;;;;;13.93;6.22;;;6.10;99.90;;;;;;5110122;28;20056;-64
2022/01/07 12:34:34;;;;;;;15.48;6.07;;;6.00;99.90;;;;;;5071464;28;20048;-63
2022/01/07 12:37:05;;;;;;;14.18;7.38;;;6.00;99.90;;;;;;5069044;28;20040;-63
2022/01/07 12:39:36;;;;;;;10.30;5.13;;;6.00;99.90;;;;;;5069464;28;20115;-64
2022/01/07 12:42:03;;;;;;;12.10;6.15;;;6.10;99.90;;;;;;5066289;28;20445;-65
2022/01/07 12:44:54;;;;;;;12.15;6.03;;;6.00;99.90;;;;;;5072239;28;20063;-63
2022/01/07 12:47:22;;;;;;;11.65;5.57;;;6.00;99.90;;;;;;5056899;28;20044;-64
2022/01/07 12:49:51;;;;;;;8.82;4.80;;;5.90;99.90;;;;;;5065398;28;20150;-64
2022/01/07 12:52:24;;;;;;;14.25;5.93;;;5.90;99.90;;;;;;5071978;28;20127;-62
2022/01/07 12:55:07;;;;;;;9.48;4.63;;;6.00;99.90;;;;;;5069179;28;20553;-63
2022/01/07 12:57:42;;;;;;;11.43;4.30;;;5.90;99.90;;;;;;5068531;28;20127;-63
2022/01/07 13:00:17;;;;;;;8.05;3.63;;;5.90;99.90;;;;;;5069542;28;20133;-63
2022/01/07 13:02:48;;;;;;;7.60;3.90;;;5.90;99.90;;;;;;5068731;28;20048;-63